createdAt,value
2018-03-28T00:01:53.257Z,101008.84
2018-03-28T00:04:20.804Z,100997.97
2018-03-28T00:06:48.225Z,101000.11
2018-03-28T00:09:15.677Z,100995.47
2018-03-28T00:11:43.165Z,100997.32
2018-03-28T00:14:10.613Z,100992.23
2018-03-28T00:16:38.097Z,100988.10
2018-03-28T00:19:05.550Z,100983.88
2018-03-28T00:21:33.142Z,100978.95
2018-03-28T00:24:00.587Z,100970.72
2018-03-28T00:26:28.086Z,100967.47
2018-03-28T00:28:55.541Z,100963.79
2018-03-28T00:31:23.029Z,100962.71
2018-03-28T00:33:50.487Z,100956.28
2018-03-28T00:36:17.969Z,100962.09
2018-03-28T00:38:45.438Z,100960.29
2018-03-28T00:41:12.925Z,100962.55
2018-03-28T00:43:40.380Z,100954.16
2018-03-28T00:46:08.001Z,100956.82
2018-03-28T00:48:35.467Z,100958.20
2018-03-28T00:51:14.553Z,100961.80
2018-03-28T00:53:41.999Z,100956.66
2018-03-28T00:56:09.478Z,100960.44
2018-03-28T00:58:36.929Z,100957.52
2018-03-28T01:01:04.378Z,100953.50
2018-03-28T01:03:31.861Z,100953.56
2018-03-28T01:05:59.309Z,100947.84
2018-03-28T01:08:26.789Z,100944.52
2018-03-28T01:10:54.241Z,100948.89
2018-03-28T01:13:21.725Z,100951.56
2018-03-28T01:15:49.262Z,100949.09
2018-03-28T01:18:16.746Z,100942.37
2018-03-28T01:20:44.202Z,100943.25
2018-03-28T01:23:11.680Z,100941.28
2018-03-28T01:25:39.131Z,100942.66
2018-03-28T01:28:06.614Z,100941.17
2018-03-28T01:30:34.064Z,100951.86
2018-03-28T01:33:01.559Z,100941.05
2018-03-28T01:35:29.015Z,100942.13
2018-03-28T01:37:56.497Z,100932.81
2018-03-28T01:40:24.002Z,100930.02
2018-03-28T01:42:51.469Z,100925.63
2018-03-28T01:45:18.929Z,100928.42
2018-03-28T01:47:46.504Z,100927.97
2018-03-28T01:50:14.686Z,100930.44
2018-03-28T01:52:42.357Z,100932.98
2018-03-28T01:55:09.813Z,100934.36
2018-03-28T01:57:37.265Z,100943.83
2018-03-28T02:00:05.509Z,100938.28
2018-03-28T02:02:32.970Z,100945.38
2018-03-28T02:05:00.450Z,100940.06
2018-03-28T02:07:27.901Z,100943.81
2018-03-28T02:09:55.388Z,100930.72
2018-03-28T02:12:22.845Z,100934.27
2018-03-28T02:14:50.327Z,100927.53
2018-03-28T02:17:18.690Z,100930.58
2018-03-28T02:19:47.138Z,100924.30
2018-03-28T02:22:14.597Z,100926.94
2018-03-28T02:24:42.085Z,100923.16
2018-03-28T02:27:09.605Z,100921.77
2018-03-28T02:29:37.098Z,100929.50
2018-03-28T02:32:04.626Z,100920.56
2018-03-28T02:34:32.163Z,100920.68
2018-03-28T02:36:59.642Z,100920.88
2018-03-28T02:39:27.126Z,100922.75
2018-03-28T02:41:54.592Z,100918.30
2018-03-28T02:44:22.422Z,100920.59
2018-03-28T02:46:49.878Z,100918.88
2018-03-28T02:49:17.331Z,100918.58
2018-03-28T02:51:44.815Z,100908.31
2018-03-28T02:54:12.270Z,100911.33
2018-03-28T02:56:39.774Z,100909.47
2018-03-28T02:59:07.229Z,100912.56
2018-03-28T03:01:34.708Z,100911.11
2018-03-28T03:04:02.167Z,100913.70
2018-03-28T03:06:29.660Z,100904.83
2018-03-28T03:08:57.143Z,100899.68
2018-03-28T03:11:24.620Z,100900.34
2018-03-28T03:13:52.069Z,100899.98
2018-03-28T03:16:19.570Z,100897.16
2018-03-28T03:18:47.034Z,100898.93
2018-03-28T03:21:15.502Z,100897.58
2018-03-28T03:23:42.953Z,100891.08
2018-03-28T03:26:10.432Z,100892.20
2018-03-28T03:28:37.881Z,100891.52
2018-03-28T03:31:06.350Z,100889.02
2018-03-28T03:33:34.701Z,100892.36
2018-03-28T03:36:02.205Z,100895.00
2018-03-28T03:38:29.658Z,100889.19
2018-03-28T03:40:57.112Z,100889.02
2018-03-28T03:43:24.610Z,100891.75
2018-03-28T03:45:52.070Z,100890.46
2018-03-28T03:48:19.557Z,100886.97
2018-03-28T03:50:48.017Z,100887.94
2018-03-28T03:53:15.505Z,100890.41
2018-03-28T03:55:42.952Z,100895.41
2018-03-28T03:58:10.436Z,100891.77
2018-03-28T04:00:37.885Z,100886.55
2018-03-28T04:03:05.365Z,100888.85
2018-03-28T04:05:32.820Z,100888.86
2018-03-28T04:08:00.301Z,100896.08
2018-03-28T04:10:27.763Z,100897.20
2018-03-28T04:12:55.280Z,100896.95
2018-03-28T04:15:23.676Z,100907.33
2018-03-28T04:17:51.197Z,100896.78
2018-03-28T04:20:18.668Z,100889.03
2018-03-28T04:22:46.182Z,100890.98
2018-03-28T04:25:13.666Z,100879.60
2018-03-28T04:27:41.177Z,100878.98
2018-03-28T04:30:08.661Z,100885.72
2018-03-28T04:32:36.141Z,100887.39
2018-03-28T04:35:03.648Z,100876.81
2018-03-28T04:37:31.139Z,100870.16
2018-03-28T04:39:58.656Z,100874.77
2018-03-28T04:42:26.133Z,100875.60
2018-03-28T04:44:54.596Z,100877.05
2018-03-28T04:47:22.983Z,100880.72
2018-03-28T04:49:50.496Z,100876.16
2018-03-28T04:52:17.972Z,100875.02
2018-03-28T04:54:46.464Z,100875.20
2018-03-28T04:57:13.936Z,100878.34
2018-03-28T04:59:41.426Z,100871.98
2018-03-28T05:02:08.881Z,100875.16
2018-03-28T05:04:37.281Z,100869.75
2018-03-28T05:07:04.740Z,100864.41
2018-03-28T05:09:32.251Z,100870.48
2018-03-28T05:12:00.668Z,100866.40
2018-03-28T05:14:28.168Z,100866.05
2018-03-28T05:16:55.646Z,100862.52
2018-03-28T05:19:23.156Z,100859.27
2018-03-28T05:21:51.600Z,100866.15
2018-03-28T05:24:20.005Z,100853.66
2018-03-28T05:26:47.452Z,100859.54
2018-03-28T05:29:14.933Z,100860.17
2018-03-28T05:31:42.383Z,100858.16
2018-03-28T05:34:09.886Z,100854.11
2018-03-28T05:36:37.341Z,100856.77
2018-03-28T05:39:06.585Z,100854.11
2018-03-28T05:41:35.068Z,100862.59
2018-03-28T05:44:02.524Z,100854.30
2018-03-28T05:46:30.040Z,100853.66
2018-03-28T05:48:57.498Z,100851.07
2018-03-28T05:51:24.990Z,100845.45
2018-03-28T05:53:52.465Z,100852.09
2018-03-28T05:56:19.955Z,100853.51
2018-03-28T05:58:47.425Z,100851.61
2018-03-28T06:01:14.918Z,100857.73
2018-03-28T06:03:42.374Z,100852.39
2018-03-28T06:06:09.866Z,100859.47
2018-03-28T06:08:37.317Z,100856.38
2018-03-28T06:11:04.895Z,100861.11
2018-03-28T06:13:32.374Z,100858.03
2018-03-28T06:15:59.873Z,100848.19
2018-03-28T06:18:27.409Z,100847.44
2018-03-28T06:20:54.885Z,100855.34
2018-03-28T06:23:22.342Z,100863.20
2018-03-28T06:25:49.797Z,100865.05
2018-03-28T06:28:18.293Z,100858.98
2018-03-28T06:30:45.745Z,100857.23
2018-03-28T06:33:13.234Z,100860.47
2018-03-28T06:35:40.692Z,100865.75
2018-03-28T06:38:08.194Z,100858.76
2018-03-28T06:40:35.641Z,100860.70
2018-03-28T06:43:03.130Z,100849.45
2018-03-28T06:45:30.580Z,100852.48
2018-03-28T06:47:58.064Z,100849.89
2018-03-28T06:50:25.513Z,100852.05
2018-03-28T06:52:52.993Z,100845.35
2018-03-28T06:55:21.406Z,100844.09
2018-03-28T06:57:48.908Z,100843.23
2018-03-28T07:00:16.445Z,100837.11
2018-03-28T07:02:44.936Z,100846.50
2018-03-28T07:05:12.494Z,100847.11
2018-03-28T07:07:39.977Z,100847.98
2018-03-28T07:10:07.433Z,100840.45
2018-03-28T07:12:34.914Z,100835.19
2018-03-28T07:15:02.373Z,100830.88
2018-03-28T07:17:29.890Z,100830.34
2018-03-28T07:19:57.344Z,100829.16
2018-03-28T07:22:24.796Z,100834.65
2018-03-28T07:24:52.304Z,100838.52
2018-03-28T07:27:19.766Z,100836.14
2018-03-28T07:29:48.291Z,100839.59
2018-03-28T07:32:15.745Z,100830.58
2018-03-28T07:34:43.233Z,100833.79
2018-03-28T07:37:10.685Z,100833.57
2018-03-28T07:39:38.179Z,100827.16
2018-03-28T07:42:05.638Z,100826.95
2018-03-28T07:44:33.137Z,100818.91
2018-03-28T07:47:00.601Z,100816.97
2018-03-28T07:49:28.089Z,100817.38
2018-03-28T07:51:55.552Z,100821.05
2018-03-28T07:54:23.025Z,100818.49
2018-03-28T07:56:50.476Z,100811.39
2018-03-28T07:59:17.969Z,100813.63
2018-03-28T08:01:45.423Z,100812.86
2018-03-28T08:04:12.877Z,100806.16
2018-03-28T08:06:40.354Z,100801.70
2018-03-28T08:09:08.002Z,100802.64
2018-03-28T08:11:35.513Z,100799.55
2018-03-28T08:14:02.962Z,100797.61
2018-03-28T08:16:30.453Z,100800.53
2018-03-28T08:18:57.908Z,100808.95
2018-03-28T08:21:25.414Z,100806.25
2018-03-28T08:23:52.877Z,100810.00
2018-03-28T08:26:20.358Z,100807.34
2018-03-28T08:28:47.826Z,100806.20
2018-03-28T08:31:15.334Z,100811.39
2018-03-28T08:33:42.787Z,100817.21
2018-03-28T08:36:11.174Z,100810.69
2018-03-28T08:38:38.630Z,100810.23
2018-03-28T08:41:06.122Z,100812.38
2018-03-28T08:43:35.504Z,100810.27
2018-03-28T08:46:03.940Z,100817.58
2018-03-28T08:48:32.398Z,100817.23
2018-03-28T08:50:59.905Z,100815.39
2018-03-28T08:53:28.337Z,100819.46
2018-03-28T08:55:56.758Z,100821.09
2018-03-28T08:58:24.210Z,100812.12
2018-03-28T09:00:51.713Z,100802.14
2018-03-28T09:03:20.128Z,100806.20
2018-03-28T09:05:48.597Z,100802.66
2018-03-28T09:08:18.034Z,100805.47
2018-03-28T09:10:45.513Z,100800.42
2018-03-28T09:13:13.006Z,100795.08
2018-03-28T09:15:41.385Z,100794.86
2018-03-28T09:18:09.806Z,100789.38
2018-03-28T09:20:37.259Z,100791.88
2018-03-28T09:23:04.814Z,100789.05
2018-03-28T09:25:32.226Z,100781.69
2018-03-28T09:27:59.717Z,100783.41
2018-03-28T09:30:27.168Z,100774.92
2018-03-28T09:32:54.644Z,100759.94
2018-03-28T09:35:22.117Z,100773.88
2018-03-28T09:37:49.644Z,100767.45
2018-03-28T09:40:17.093Z,100778.17
2018-03-28T09:42:44.587Z,100780.16
2018-03-28T09:45:12.054Z,100768.73
2018-03-28T09:47:40.494Z,100763.74
2018-03-28T09:50:07.946Z,100767.22
2018-03-28T09:52:35.442Z,100770.64
2018-03-28T09:55:03.869Z,100761.81
2018-03-28T09:57:33.317Z,100761.45
2018-03-28T10:00:00.769Z,100757.16
2018-03-28T10:02:31.017Z,100755.66
2018-03-28T10:04:59.438Z,100756.55
2018-03-28T10:07:26.885Z,100762.44
2018-03-28T10:09:54.374Z,100766.31
2018-03-28T10:12:21.819Z,100764.69
2018-03-28T10:14:49.300Z,100759.64
2018-03-28T10:17:17.800Z,100759.06
2018-03-28T10:19:45.258Z,100759.47
2018-03-28T10:22:12.718Z,100762.75
2018-03-28T10:24:40.204Z,100760.25
2018-03-28T10:27:07.681Z,100767.47
2018-03-28T10:29:35.164Z,100776.06
2018-03-28T10:32:02.618Z,100774.80
2018-03-28T10:34:30.131Z,100772.84
2018-03-28T10:36:59.528Z,100780.59
2018-03-28T10:39:27.014Z,100769.92
2018-03-28T10:41:56.413Z,100777.47
2018-03-28T10:44:24.918Z,100774.56
2018-03-28T10:46:52.377Z,100766.14
2018-03-28T10:49:19.874Z,100779.45
2018-03-28T10:51:47.345Z,100776.97
2018-03-28T10:54:15.725Z,100778.66
2018-03-28T10:56:43.204Z,100778.28
2018-03-28T10:59:10.652Z,100762.71
2018-03-28T11:01:38.130Z,100767.07
2018-03-28T11:04:05.575Z,100760.11
2018-03-28T11:06:33.052Z,100754.87
2018-03-28T11:09:00.508Z,100759.64
2018-03-28T11:11:28.025Z,100748.49
2018-03-28T11:13:55.481Z,100731.45
2018-03-28T11:16:22.981Z,100740.95
2018-03-28T11:18:50.649Z,100748.55
2018-03-28T11:21:18.133Z,100746.88
2018-03-28T11:23:45.699Z,100743.14
2018-03-28T11:26:13.188Z,100732.08
2018-03-28T11:28:40.660Z,100735.27
2018-03-28T11:31:08.141Z,100734.97
2018-03-28T11:33:35.597Z,100725.63
2018-03-28T11:36:03.080Z,100723.61
2018-03-28T11:38:31.472Z,100708.99
2018-03-28T11:40:58.958Z,100705.25
2018-03-28T11:43:27.337Z,100713.44
2018-03-28T11:45:54.793Z,100719.59
2018-03-28T11:48:22.307Z,100718.26
2018-03-28T11:50:50.718Z,100718.94
2018-03-28T11:53:19.115Z,100704.40
2018-03-28T11:55:46.569Z,100707.17
2018-03-28T11:58:14.052Z,100704.83
2018-03-28T12:00:41.518Z,100703.83
2018-03-28T12:03:09.015Z,100701.70
2018-03-28T12:05:36.490Z,100686.64
2018-03-28T12:08:03.977Z,100690.83
2018-03-28T12:10:32.412Z,100690.05
2018-03-28T12:12:59.942Z,100662.14
2018-03-28T12:15:27.401Z,100667.50
2018-03-28T12:17:54.889Z,100665.00
2018-03-28T12:20:22.347Z,100648.61
2018-03-28T12:22:49.937Z,100650.76
2018-03-28T12:25:17.531Z,100643.52
2018-03-28T12:27:46.119Z,100657.77
2018-03-28T12:30:13.657Z,100661.55
2018-03-28T12:32:41.164Z,100665.09
2018-03-28T12:35:08.649Z,100671.54
2018-03-28T12:37:36.105Z,100672.70
2018-03-28T12:40:04.566Z,100668.64
2018-03-28T12:42:32.029Z,100659.55
2018-03-28T12:44:59.541Z,100661.65
2018-03-28T12:47:28.139Z,100667.87
2018-03-28T12:49:55.766Z,100649.85
2018-03-28T12:52:26.254Z,100664.31
2018-03-28T12:54:54.737Z,100662.08
2018-03-28T12:57:22.410Z,100643.18
2018-03-28T12:59:49.747Z,100644.87
2018-03-28T13:02:17.230Z,100641.18
2018-03-28T13:04:49.095Z,100635.73
2018-03-28T13:07:16.546Z,100640.24
2018-03-28T13:09:44.082Z,100639.59
2018-03-28T13:12:11.659Z,100631.69
2018-03-28T13:14:39.327Z,100635.46
2018-03-28T13:17:06.784Z,100637.98
2018-03-28T13:19:34.297Z,100626.48
2018-03-28T13:22:01.749Z,100621.89
2018-03-28T13:24:29.261Z,100612.94
2018-03-28T13:26:56.716Z,100599.92
2018-03-28T13:29:24.178Z,100600.47
2018-03-28T13:31:51.661Z,100584.83
2018-03-28T13:34:19.173Z,100587.06
2018-03-28T13:36:46.682Z,100583.58
2018-03-28T13:39:15.131Z,100584.84
2018-03-28T13:41:42.617Z,100572.91
2018-03-28T13:44:12.044Z,100572.37
2018-03-28T13:46:39.538Z,100560.30
2018-03-28T13:49:07.016Z,100561.09
2018-03-28T13:51:35.464Z,100559.78
2018-03-28T13:54:02.921Z,100552.84
2018-03-28T13:56:31.391Z,100554.50
2018-03-28T13:58:58.859Z,100550.62
2018-03-28T14:01:26.381Z,100550.36
2018-03-28T14:03:54.753Z,100553.39
2018-03-28T14:06:22.244Z,100558.94
2018-03-28T14:08:49.718Z,100544.14
2018-03-28T14:11:17.218Z,100550.84
2018-03-28T14:13:44.670Z,100558.91
2018-03-28T14:16:13.101Z,100537.28
2018-03-28T14:18:40.618Z,100545.81
2018-03-28T14:21:08.069Z,100553.97
2018-03-28T14:23:35.526Z,100533.67
2018-03-28T14:26:03.050Z,100542.36
2018-03-28T14:28:30.535Z,100536.97
2018-03-28T14:30:58.006Z,100535.14
2018-03-28T14:33:25.489Z,100526.44
2018-03-28T14:35:52.953Z,100522.34
2018-03-28T14:38:21.428Z,100519.48
2018-03-28T14:40:49.750Z,100496.02
2018-03-28T14:43:17.229Z,100500.69
2018-03-28T14:45:45.650Z,100487.55
2018-03-28T14:48:14.130Z,100485.48
2018-03-28T14:50:42.578Z,100488.02
2018-03-28T14:53:10.094Z,100476.14
2018-03-28T14:55:37.535Z,100471.70
2018-03-28T14:58:05.235Z,100459.73
2018-03-28T15:00:32.687Z,100451.60
2018-03-28T15:03:00.190Z,100448.15
2018-03-28T15:05:28.650Z,100441.42
2018-03-28T15:07:57.016Z,100428.62
2018-03-28T15:10:24.476Z,100411.16
2018-03-28T15:12:52.896Z,100410.44
2018-03-28T15:15:21.345Z,100398.78
2018-03-28T15:17:48.837Z,100394.74
2018-03-28T15:20:16.383Z,100394.95
2018-03-28T15:22:43.837Z,100392.51
2018-03-28T15:25:11.342Z,100396.14
2018-03-28T15:27:38.793Z,100380.84
2018-03-28T15:30:06.281Z,100388.09
2018-03-28T15:32:33.742Z,100386.33
2018-03-28T15:35:01.224Z,100396.60
2018-03-28T15:37:29.684Z,100391.11
2018-03-28T15:39:57.180Z,100385.84
2018-03-28T15:42:24.646Z,100381.32
2018-03-28T15:44:52.143Z,100370.30
2018-03-28T15:47:19.597Z,100374.23
2018-03-28T15:49:47.080Z,100375.83
2018-03-28T15:52:14.537Z,100383.69
2018-03-28T15:54:42.034Z,100369.67
2018-03-28T15:57:09.480Z,100358.19
2018-03-28T15:59:37.909Z,100355.59
2018-03-28T16:02:05.357Z,100340.30
2018-03-28T16:04:33.797Z,100348.69
2018-03-28T16:07:02.233Z,100339.16
2018-03-28T16:09:30.652Z,100347.67
2018-03-28T16:11:58.117Z,100338.31
2018-03-28T16:14:25.572Z,100339.01
2018-03-28T16:16:53.121Z,100330.72
2018-03-28T16:19:20.573Z,100327.22
2018-03-28T16:21:51.352Z,100318.15
2018-03-28T16:24:18.815Z,100314.10
2018-03-28T16:26:46.309Z,100312.89
2018-03-28T16:29:13.757Z,100301.92
2018-03-28T16:31:41.298Z,100301.14
2018-03-28T16:34:09.701Z,100307.31
2018-03-28T16:36:37.250Z,100301.81
2018-03-28T16:39:04.690Z,100306.17
2018-03-28T16:41:32.165Z,100287.27
2018-03-28T16:43:59.618Z,100286.47
2018-03-28T16:46:27.097Z,100284.75
2018-03-28T16:48:57.617Z,100283.23
2018-03-28T16:51:25.107Z,100279.44
2018-03-28T16:53:52.561Z,100273.87
2018-03-28T16:56:20.064Z,100276.97
2018-03-28T16:58:49.472Z,100266.42
2018-03-28T17:01:16.970Z,100265.78
2018-03-28T17:03:44.456Z,100257.07
2018-03-28T17:06:11.972Z,100253.57
2018-03-28T17:08:43.137Z,100253.83
2018-03-28T17:11:10.587Z,100254.89
2018-03-28T17:13:38.145Z,100248.54
2018-03-28T17:16:05.600Z,100245.98
2018-03-28T17:18:33.084Z,100228.43
2018-03-28T17:21:00.618Z,100229.27
2018-03-28T17:23:28.164Z,100233.37
2018-03-28T17:25:56.612Z,100230.73
2018-03-28T17:28:25.037Z,100237.37
2018-03-28T17:30:52.589Z,100235.38
2018-03-28T17:33:20.073Z,100240.77
2018-03-28T17:35:47.525Z,100240.41
2018-03-28T17:38:15.005Z,100233.72
2018-03-28T17:40:43.426Z,100241.52
2018-03-28T17:43:11.920Z,100241.23
2018-03-28T17:45:40.365Z,100238.27
2018-03-28T17:48:07.854Z,100238.02
2018-03-28T17:50:35.321Z,100236.99
2018-03-28T17:53:03.825Z,100238.52
2018-03-28T17:55:31.270Z,100241.59
2018-03-28T17:57:58.769Z,100240.22
2018-03-28T18:03:28.552Z,100240.86
2018-03-28T18:05:56.033Z,100248.50
2018-03-28T18:08:23.777Z,100241.49
2018-03-28T18:10:51.238Z,100246.89
2018-03-28T18:13:18.729Z,100248.75
2018-03-28T18:15:46.184Z,100245.58
2018-03-28T18:18:13.638Z,100253.32
2018-03-28T18:20:41.117Z,100248.33
2018-03-28T18:23:09.490Z,100244.92
2018-03-28T18:25:38.954Z,100248.04
2018-03-28T18:28:06.500Z,100248.43
2018-03-28T18:33:05.576Z,100239.12
2018-03-28T18:35:33.066Z,100242.97
2018-03-28T18:38:00.519Z,100237.73
2018-03-28T18:40:28.063Z,100237.61
2018-03-28T18:42:55.494Z,100229.81
2018-03-28T18:45:22.977Z,100225.34
2018-03-28T18:47:50.437Z,100234.89
2018-03-28T18:50:17.935Z,100232.83
2018-03-28T18:52:45.387Z,100226.50
2018-03-28T18:55:12.873Z,100222.63
2018-03-28T18:57:40.331Z,100217.61
2018-03-28T19:00:07.806Z,100208.16
2018-03-28T19:02:35.253Z,100211.06
2018-03-28T19:05:02.741Z,100213.77
2018-03-28T19:07:30.227Z,100205.86
2018-03-28T19:09:57.686Z,100205.89
2018-03-28T19:12:25.175Z,100203.78
2018-03-28T19:14:52.757Z,100206.37
2018-03-28T19:17:20.252Z,100204.28
2018-03-28T19:19:47.706Z,100201.11
2018-03-28T19:22:15.192Z,100201.48
2018-03-28T19:24:43.551Z,100193.55
2018-03-28T19:27:11.045Z,100191.34
2018-03-28T19:29:38.513Z,100190.84
2018-03-28T19:32:06.000Z,100183.14
2018-03-28T19:34:33.452Z,100187.58
2018-03-28T19:37:00.949Z,100176.61
2018-03-28T19:39:29.378Z,100178.64
2018-03-28T19:41:56.885Z,100173.93
2018-03-28T19:44:24.356Z,100169.50
2018-03-28T19:46:51.840Z,100167.86
2018-03-28T19:49:19.297Z,100162.18
2018-03-28T19:51:46.787Z,100159.59
2018-03-28T19:54:15.184Z,100151.81
2018-03-28T19:56:43.658Z,100160.95
2018-03-28T19:59:11.113Z,100149.52
2018-03-28T20:01:38.605Z,100151.12
2018-03-28T20:04:06.061Z,100143.57
2018-03-28T20:06:33.519Z,100145.36
2018-03-28T20:09:01.974Z,100152.64
2018-03-28T20:11:29.447Z,100147.62
2018-03-28T20:13:56.933Z,100147.86
2018-03-28T20:16:24.401Z,100136.29
2018-03-28T20:18:51.889Z,100138.23
2018-03-28T20:21:19.387Z,100135.23
2018-03-28T20:23:47.832Z,100134.69
2018-03-28T20:26:15.281Z,100123.62
2018-03-28T20:28:42.761Z,100127.58
2018-03-28T20:31:10.212Z,100121.14
2018-03-28T20:33:37.753Z,100121.87
2018-03-28T20:36:05.309Z,100112.57
2018-03-28T20:38:32.785Z,100113.77
2018-03-28T20:41:00.241Z,100115.80
2018-03-28T20:43:27.728Z,100106.91
2018-03-28T20:45:55.179Z,100104.46
2018-03-28T20:48:22.877Z,100103.67
2018-03-28T20:50:50.373Z,100102.44
2018-03-28T20:53:17.848Z,100094.05
2018-03-28T20:55:45.322Z,100098.02
2018-03-28T20:58:12.809Z,100095.72
2018-03-28T21:00:40.283Z,100093.92
2018-03-28T21:03:07.854Z,100093.88
2018-03-28T21:05:35.316Z,100081.58
2018-03-28T21:08:02.820Z,100079.50
2018-03-28T21:10:31.214Z,100081.25
2018-03-28T21:12:58.681Z,100066.33
2018-03-28T21:15:26.181Z,100067.34
2018-03-28T21:17:53.644Z,100064.58
2018-03-28T21:20:22.110Z,100059.57
2018-03-28T21:22:49.579Z,100061.23
2018-03-28T21:25:17.070Z,100059.44
2018-03-28T21:27:44.539Z,100054.59
2018-03-28T21:30:12.116Z,100045.52
2018-03-28T21:32:39.586Z,100045.44
2018-03-28T21:35:07.194Z,100047.31
2018-03-28T21:37:34.646Z,100038.39
2018-03-28T21:40:02.149Z,100035.16
2018-03-28T21:42:29.605Z,100031.52
2018-03-28T21:44:57.137Z,100027.05
2018-03-28T21:47:24.589Z,100021.77
2018-03-28T21:49:52.081Z,100022.92
2018-03-28T21:52:19.539Z,100003.34
2018-03-28T21:54:47.039Z,100013.95
2018-03-28T21:57:14.502Z,100007.77
2018-03-28T21:59:42.026Z,100000.73
2018-03-28T22:02:09.525Z,100007.27
2018-03-28T22:04:37.034Z,100000.35
2018-03-28T22:07:04.531Z,100003.59
2018-03-28T22:09:31.996Z,99992.03
2018-03-28T22:11:59.510Z,99993.58
2018-03-28T22:14:27.008Z,99982.12
2018-03-28T22:16:54.502Z,99981.23
2018-03-28T22:19:21.959Z,99973.59
2018-03-28T22:21:49.509Z,99967.20
2018-03-28T22:24:16.987Z,99965.92
2018-03-28T22:26:44.477Z,99953.66
2018-03-28T22:29:11.927Z,99961.61
2018-03-28T22:31:39.402Z,99951.33
2018-03-28T22:34:06.849Z,99954.59
2018-03-28T22:36:34.321Z,99945.63
2018-03-28T22:39:01.776Z,99943.10
2018-03-28T22:41:29.331Z,99940.97
2018-03-28T22:43:56.742Z,99935.91
2018-03-28T22:46:25.321Z,99935.78
2018-03-28T22:48:52.835Z,99929.23
2018-03-28T22:51:20.332Z,99927.22
2018-03-28T22:53:47.775Z,99926.34
2018-03-28T22:56:15.249Z,99925.47
2018-03-28T22:58:42.692Z,99928.95
2018-03-28T23:01:10.236Z,99923.34
2018-03-28T23:03:37.789Z,99928.88
2018-03-28T23:06:05.253Z,99921.50
2018-03-28T23:08:32.731Z,99923.44
2018-03-28T23:11:00.233Z,99923.48
2018-03-28T23:13:27.720Z,99911.60
2018-03-28T23:15:55.156Z,99916.44
2018-03-28T23:18:22.630Z,99904.34
2018-03-28T23:20:50.096Z,99905.27
2018-03-28T23:23:17.610Z,99903.61
2018-03-28T23:25:45.062Z,99905.72
2018-03-28T23:28:12.549Z,99903.22
2018-03-28T23:30:40.009Z,99893.73
2018-03-28T23:33:07.489Z,99902.22
2018-03-28T23:35:34.934Z,99894.38
2018-03-28T23:38:04.390Z,99887.59
2018-03-28T23:40:31.893Z,99891.76
2018-03-28T23:42:59.390Z,99882.30
2018-03-28T23:45:26.862Z,99880.77
2018-03-28T23:47:54.389Z,99884.09
2018-03-28T23:50:21.837Z,99880.91
2018-03-28T23:52:49.291Z,99878.47
2018-03-28T23:55:16.829Z,99876.68
2018-03-28T23:57:44.269Z,99867.88
